createdAt,value
2016-04-04T00:00:59.409Z,39.14
2016-04-04T00:01:59.583Z,39.04
2016-04-04T00:02:59.321Z,38.85
2016-04-04T00:03:59.292Z,39.04
2016-04-04T00:05:02.248Z,38.95
2016-04-04T00:05:59.187Z,39.04
2016-04-04T00:06:59.143Z,39.23
2016-04-04T00:07:59.084Z,38.85
2016-04-04T00:08:59.055Z,39.33
2016-04-04T00:09:59.011Z,39.14
2016-04-04T00:10:58.951Z,38.95
2016-04-04T00:11:58.907Z,39.33
2016-04-04T00:12:58.847Z,39.23
2016-04-04T00:13:58.803Z,39.33
2016-04-04T00:14:58.775Z,39.33
2016-04-04T00:15:58.731Z,39.43
2016-04-04T00:16:58.655Z,39.33
2016-04-04T00:17:58.672Z,39.14
2016-04-04T00:18:58.894Z,39.33
2016-04-04T00:20:01.882Z,39.04
2016-04-04T00:20:58.478Z,39.33
2016-04-04T00:21:58.434Z,39.04
2016-04-04T00:22:58.390Z,39.33
2016-04-04T00:23:58.346Z,39.14
2016-04-04T00:25:01.332Z,39.43
2016-04-04T00:25:58.241Z,39.33
2016-04-04T00:26:58.197Z,39.33
2016-04-04T00:27:58.154Z,39.33
2016-04-04T00:28:58.124Z,39.43
2016-04-04T00:29:58.096Z,39.14
2016-04-04T00:30:58.020Z,39.33
2016-04-04T00:31:57.960Z,39.53
2016-04-04T00:32:57.917Z,39.43
2016-04-04T00:33:57.873Z,39.62
2016-04-04T00:34:57.828Z,39.33
2016-04-04T00:35:57.784Z,39.62
2016-04-04T00:36:57.739Z,39.53
2016-04-04T00:37:57.680Z,39.53
2016-04-04T00:38:57.637Z,39.53
2016-04-04T00:40:00.606Z,39.53
2016-04-04T00:40:57.548Z,39.62
2016-04-04T00:41:57.503Z,39.53
2016-04-04T00:42:57.458Z,39.62
2016-04-04T00:43:57.399Z,39.72
2016-04-04T00:44:57.356Z,39.72
2016-04-04T00:45:57.311Z,39.62
2016-04-04T00:46:57.283Z,39.72
2016-04-04T00:47:57.238Z,40
2016-04-04T00:48:57.178Z,39.72
2016-04-04T00:49:57.133Z,40
2016-04-04T00:50:57.105Z,40
2016-04-04T00:51:57.030Z,39.72
2016-04-04T00:52:57.002Z,40
2016-04-04T00:53:56.941Z,39.72
2016-04-04T00:54:56.897Z,40
2016-04-04T00:55:56.854Z,40.1
2016-04-04T00:56:56.794Z,39.72
2016-04-04T00:57:56.765Z,39.81
2016-04-04T00:58:59.737Z,39.62
2016-04-04T00:59:56.723Z,40
2016-04-04T01:00:56.632Z,39.72
2016-04-04T01:01:56.573Z,39.53
2016-04-04T01:02:56.513Z,39.72
2016-04-04T01:03:56.485Z,39.72
2016-04-04T01:04:59.440Z,39.62
2016-04-04T01:05:56.378Z,39.43
2016-04-04T01:07:02.337Z,39.72
2016-04-04T01:07:56.290Z,40
2016-04-04T01:08:56.449Z,39.91
2016-04-04T01:09:56.185Z,39.81
2016-04-04T01:10:56.142Z,40
2016-04-04T01:11:56.098Z,39.62
2016-04-04T01:12:56.334Z,40
2016-04-04T01:13:55.993Z,39.53
2016-04-04T01:14:59.170Z,39.62
2016-04-04T01:15:55.920Z,39.91
2016-04-04T01:16:55.861Z,39.53
2016-04-04T01:17:58.834Z,39.53
2016-04-04T01:18:58.791Z,40
2016-04-04T01:19:55.728Z,40
2016-04-04T01:20:55.668Z,40
2016-04-04T01:21:58.671Z,39.72
2016-04-04T01:22:55.783Z,39.53
2016-04-04T01:23:55.552Z,39.62
2016-04-04T01:24:55.898Z,39.53
2016-04-04T01:25:55.447Z,39.91
2016-04-04T01:26:58.403Z,40
2016-04-04T01:27:55.343Z,40
2016-04-04T01:28:55.299Z,40.1
2016-04-04T01:29:55.254Z,40
2016-04-04T01:30:58.226Z,39.91
2016-04-04T01:31:55.151Z,40
2016-04-04T01:32:55.107Z,40
2016-04-04T01:33:55.079Z,39.91
2016-04-04T01:34:55.018Z,40
2016-04-04T01:35:58.193Z,39.72
2016-04-04T01:36:54.930Z,39.91
2016-04-04T01:37:54.902Z,40
2016-04-04T01:38:54.842Z,40
2016-04-04T01:39:54.782Z,40
2016-04-04T01:40:54.941Z,40
2016-04-04T01:41:54.709Z,39.72
2016-04-04T01:42:54.649Z,40
2016-04-04T01:43:54.605Z,40
2016-04-04T01:44:54.576Z,40
2016-04-04T01:45:54.361Z,40
2016-04-04T01:46:54.456Z,40.1
2016-04-04T01:47:54.412Z,40
2016-04-04T01:48:54.414Z,40.1
2016-04-04T01:49:54.324Z,40.1
2016-04-04T01:50:54.280Z,40
2016-04-04T01:51:54.235Z,40
2016-04-04T01:52:54.191Z,40
2016-04-04T01:53:57.178Z,39.91
2016-04-04T01:54:54.102Z,40
2016-04-04T01:55:54.043Z,40
2016-04-04T01:56:54.311Z,39.72
2016-04-04T01:57:53.955Z,40
2016-04-04T01:58:53.895Z,39.91
2016-04-04T01:59:53.866Z,39.62
2016-04-04T02:00:53.671Z,39.81
2016-04-04T02:01:53.768Z,40
2016-04-04T02:02:53.708Z,39.91
2016-04-04T02:03:53.710Z,39.53
2016-04-04T02:04:53.620Z,40
2016-04-04T02:05:53.575Z,40.1
2016-04-04T02:06:53.531Z,40.1
2016-04-04T02:07:53.487Z,39.81
2016-04-04T02:08:56.458Z,39.72
2016-04-04T02:09:53.398Z,40
2016-04-04T02:10:53.354Z,40.1
2016-04-04T02:11:56.326Z,39.72
2016-04-04T02:12:53.453Z,39.72
2016-04-04T02:13:53.222Z,40
2016-04-04T02:14:53.209Z,40
2016-04-04T02:15:53.134Z,39.91
2016-04-04T02:16:52.917Z,40.1
2016-04-04T02:17:53.030Z,39.91
2016-04-04T02:18:53.172Z,40.1
2016-04-04T02:19:52.972Z,39.81
2016-04-04T02:20:52.881Z,39.43
2016-04-04T02:21:52.837Z,40
2016-04-04T02:22:52.794Z,40
2016-04-04T02:23:52.733Z,39.81
2016-04-04T02:24:52.689Z,39.53
2016-04-04T02:25:52.644Z,39.62
2016-04-04T02:26:52.585Z,39.43
2016-04-04T02:27:55.572Z,39.62
2016-04-04T02:28:52.513Z,40.1
2016-04-04T02:29:52.655Z,39.91
2016-04-04T02:30:52.424Z,40.1
2016-04-04T02:31:52.364Z,39.81
2016-04-04T02:32:52.320Z,39.43
2016-04-04T02:33:52.291Z,40
2016-04-04T02:34:52.216Z,39.62
2016-04-04T02:35:52.171Z,40
2016-04-04T02:36:52.112Z,40.1
2016-04-04T02:37:52.068Z,40
2016-04-04T02:38:55.039Z,39.91
2016-04-04T02:39:51.979Z,39.91
2016-04-04T02:40:51.951Z,40
2016-04-04T02:41:51.906Z,40
2016-04-04T02:42:51.862Z,40
2016-04-04T02:43:51.803Z,40
2016-04-04T02:44:54.759Z,39.91
2016-04-04T02:45:51.714Z,40
2016-04-04T02:46:54.670Z,39.62
2016-04-04T02:47:51.611Z,40
2016-04-04T02:48:51.566Z,40
2016-04-04T02:49:51.584Z,40
2016-04-04T02:50:51.571Z,39.62
2016-04-04T02:51:51.449Z,40
2016-04-04T02:52:51.374Z,39.81
2016-04-04T02:53:54.422Z,39.91
2016-04-04T02:54:51.300Z,40.1
2016-04-04T02:55:51.257Z,39.72
2016-04-04T02:56:54.227Z,40.1
2016-04-04T02:57:54.153Z,39.91
2016-04-04T02:58:51.124Z,39.91
2016-04-04T02:59:51.064Z,40
2016-04-04T03:00:57.223Z,39.91
2016-04-04T03:01:51.258Z,39.91
2016-04-04T03:02:50.963Z,39.91
2016-04-04T03:03:52.371Z,39.62
2016-04-04T03:04:50.813Z,40
2016-04-04T03:05:50.768Z,39.72
2016-04-04T03:06:50.724Z,40
2016-04-04T03:07:50.672Z,39.91
2016-04-04T03:08:50.629Z,39.53
2016-04-04T03:09:50.600Z,40.1
2016-04-04T03:10:50.540Z,40.1
2016-04-04T03:11:50.496Z,39.53
2016-04-04T03:12:50.436Z,39.53
2016-04-04T03:13:53.626Z,39.72
2016-04-04T03:14:53.379Z,40
2016-04-04T03:15:50.304Z,39.91
2016-04-04T03:16:50.259Z,39.62
2016-04-04T03:17:50.231Z,40.2
2016-04-04T03:18:50.171Z,40.29
2016-04-04T03:19:50.174Z,40.1
2016-04-04T03:20:50.082Z,40.2
2016-04-04T03:21:50.226Z,40.1
2016-04-04T03:22:49.979Z,39.72
2016-04-04T03:23:49.950Z,40.29
2016-04-04T03:24:49.890Z,39.72
2016-04-04T03:25:49.862Z,40.1
2016-04-04T03:26:49.802Z,39.81
2016-04-04T03:27:49.742Z,39.72
2016-04-04T03:28:50.011Z,40.1
2016-04-04T03:29:49.669Z,40.29
2016-04-04T03:30:49.609Z,40.2
2016-04-04T03:31:52.566Z,40.2
2016-04-04T03:32:49.927Z,40
2016-04-04T03:33:52.477Z,39.72
2016-04-04T03:34:49.542Z,39.91
2016-04-04T03:35:49.389Z,40.2
2016-04-04T03:36:49.329Z,39.81
2016-04-04T03:37:49.300Z,39.91
2016-04-04T03:38:49.241Z,40.1
2016-04-04T03:39:49.197Z,40.1
2016-04-04T03:40:52.152Z,40.1
2016-04-04T03:41:49.295Z,39.72
2016-04-04T03:42:49.049Z,40.2
2016-04-04T03:43:52.004Z,39.62
2016-04-04T03:44:48.959Z,40.2
2016-04-04T03:45:48.916Z,40.1
2016-04-04T03:46:48.716Z,40.29
2016-04-04T03:47:48.812Z,40.29
2016-04-04T03:48:51.782Z,40.29
2016-04-04T03:49:48.724Z,40.2
2016-04-04T03:50:48.679Z,40.29
2016-04-04T03:51:54.650Z,40.2
2016-04-04T03:52:48.590Z,40.2
2016-04-04T03:53:48.546Z,40.29
2016-04-04T03:54:48.503Z,40
2016-04-04T03:55:48.442Z,40.29
2016-04-04T03:56:48.398Z,40.1
2016-04-04T03:57:48.354Z,40.2
2016-04-04T03:58:48.170Z,40.29
2016-04-04T03:59:48.266Z,40.29
2016-04-04T04:00:48.222Z,40.29
2016-04-04T04:01:51.178Z,39.91
2016-04-04T04:02:48.133Z,40.2
2016-04-04T04:03:48.073Z,40.2
2016-04-04T04:04:48.014Z,39.72
2016-04-04T04:05:48.172Z,40.2
2016-04-04T04:06:50.926Z,40.29
2016-04-04T04:07:50.898Z,40
2016-04-04T04:08:47.837Z,40
2016-04-04T04:09:47.809Z,39.72
2016-04-04T04:10:47.750Z,40.2
2016-04-04T04:11:47.689Z,40.1
2016-04-04T04:12:47.645Z,40.29
2016-04-04T04:13:47.601Z,40
2016-04-04T04:14:47.558Z,40.2
2016-04-04T04:15:47.513Z,40
2016-04-04T04:16:47.469Z,40
2016-04-04T04:17:50.425Z,40
2016-04-04T04:18:47.396Z,39.91
2016-04-04T04:19:47.352Z,40
2016-04-04T04:20:47.276Z,39.81
2016-04-04T04:21:47.530Z,40
2016-04-04T04:22:47.204Z,40.2
2016-04-04T04:23:47.174Z,40
2016-04-04T04:24:47.100Z,40
2016-04-04T04:25:50.071Z,39.72
2016-04-04T04:26:47.199Z,40
2016-04-04T04:27:46.982Z,39.91
2016-04-04T04:28:46.908Z,40.29
2016-04-04T04:29:46.894Z,40.1
2016-04-04T04:30:46.834Z,39.72
2016-04-04T04:31:46.774Z,40
2016-04-04T04:32:46.698Z,40.2
2016-04-04T04:33:46.655Z,40
2016-04-04T04:34:46.845Z,40.2
2016-04-04T04:35:46.582Z,39.62
2016-04-04T04:36:49.554Z,40
2016-04-04T04:37:46.478Z,40.2
2016-04-04T04:38:46.481Z,40.29
2016-04-04T04:39:46.389Z,39.91
2016-04-04T04:40:46.331Z,40.1
2016-04-04T04:41:46.301Z,39.81
2016-04-04T04:42:46.273Z,40
2016-04-04T04:43:46.213Z,40
2016-04-04T04:44:49.372Z,40.29
2016-04-04T04:45:46.094Z,40.2
2016-04-04T04:46:46.064Z,40.1
2016-04-04T04:47:46.036Z,40
2016-04-04T04:48:46.180Z,40.2
2016-04-04T04:49:45.980Z,40.2
2016-04-04T04:50:45.872Z,40
2016-04-04T04:51:45.828Z,40
2016-04-04T04:52:45.785Z,39.81
2016-04-04T04:53:48.740Z,39.72
2016-04-04T04:54:45.680Z,40.29
2016-04-04T04:55:45.667Z,40.1
2016-04-04T04:56:45.591Z,40.1
2016-04-04T04:57:45.579Z,40.29
2016-04-04T04:58:45.504Z,40.2
2016-04-04T04:59:45.443Z,40.2
2016-04-04T05:00:45.415Z,40.2
2016-04-04T05:01:45.371Z,40.29
2016-04-04T05:02:45.311Z,40.2
2016-04-04T05:03:48.283Z,39.91
2016-04-04T05:04:45.301Z,40.29
2016-04-04T05:05:45.179Z,39.91
2016-04-04T05:06:45.431Z,40.2
2016-04-04T05:07:45.090Z,40.29
2016-04-04T05:08:45.328Z,39.91
2016-04-04T05:09:48.017Z,40.2
2016-04-04T05:10:44.942Z,40.29
2016-04-04T05:11:47.913Z,40.2
2016-04-04T05:12:47.870Z,39.91
2016-04-04T05:13:44.825Z,39.81
2016-04-04T05:14:44.952Z,40.39
2016-04-04T05:15:44.706Z,40.2
2016-04-04T05:16:44.709Z,39.81
2016-04-04T05:17:44.617Z,40.1
2016-04-04T05:18:44.588Z,40.2
2016-04-04T05:19:44.561Z,40
2016-04-04T05:20:44.485Z,40.1
2016-04-04T05:21:50.440Z,40
2016-04-04T05:22:47.615Z,40
2016-04-04T05:23:44.336Z,40
2016-04-04T05:24:47.152Z,40.29
2016-04-04T05:25:44.248Z,39.91
2016-04-04T05:26:44.193Z,40.2
2016-04-04T05:27:44.186Z,40.1
2016-04-04T05:28:47.115Z,40.2
2016-04-04T05:29:44.055Z,39.81
2016-04-04T05:30:44.012Z,40.2
2016-04-04T05:31:46.968Z,39.91
2016-04-04T05:32:43.938Z,40.39
2016-04-04T05:33:43.879Z,40.29
2016-04-04T05:34:43.912Z,40.29
2016-04-04T05:35:43.775Z,40.1
2016-04-04T05:36:43.731Z,40.2
2016-04-04T05:37:43.687Z,40.29
2016-04-04T05:38:43.643Z,40.39
2016-04-04T05:39:43.598Z,40.29
2016-04-04T05:40:46.554Z,40.29
2016-04-04T05:41:43.494Z,40
2016-04-04T05:42:43.450Z,40.39
2016-04-04T05:43:43.406Z,40.29
2016-04-04T05:44:43.392Z,40.29
2016-04-04T05:45:46.303Z,40.29
2016-04-04T05:46:43.258Z,39.81
2016-04-04T05:47:43.214Z,40.29
2016-04-04T05:48:43.154Z,40.39
2016-04-04T05:49:43.172Z,40.29
2016-04-04T05:50:46.081Z,40.48
2016-04-04T05:51:43.036Z,40.39
2016-04-04T05:52:42.977Z,40.29
2016-04-04T05:53:42.932Z,40.39
2016-04-04T05:54:42.889Z,40.29
2016-04-04T05:55:42.829Z,40.29
2016-04-04T05:56:42.799Z,40.29
2016-04-04T05:57:42.756Z,40.1
2016-04-04T05:58:42.697Z,40
2016-04-04T05:59:42.668Z,40.39
2016-04-04T06:00:42.623Z,40.29
2016-04-04T06:01:42.563Z,40.48
2016-04-04T06:02:42.535Z,40.39
2016-04-04T06:03:45.475Z,39.81
2016-04-04T06:04:42.493Z,40.29
2016-04-04T06:05:42.371Z,40.1
2016-04-04T06:06:42.530Z,40
2016-04-04T06:07:42.282Z,40.2
2016-04-04T06:08:42.239Z,39.91
2016-04-04T06:09:45.210Z,40.2
2016-04-04T06:10:42.134Z,40.39
2016-04-04T06:11:42.090Z,40.39
2016-04-04T06:12:42.062Z,40.39
2016-04-04T06:13:42.017Z,40.39
2016-04-04T06:14:41.958Z,40.29
2016-04-04T06:15:41.914Z,40
2016-04-04T06:16:41.853Z,40.29
2016-04-04T06:17:41.809Z,40.39
2016-04-04T06:18:41.781Z,40.1
2016-04-04T06:19:41.769Z,40.39
2016-04-04T06:20:41.677Z,40.29
2016-04-04T06:21:41.617Z,40.39
2016-04-04T06:22:41.620Z,39.91
2016-04-04T06:23:41.544Z,40.29
2016-04-04T06:24:44.719Z,40.1
2016-04-04T06:25:44.455Z,40.2
2016-04-04T06:26:41.380Z,40.48
2016-04-04T06:27:41.336Z,40.48
2016-04-04T06:28:41.307Z,39.91
2016-04-04T06:29:41.249Z,40.39
2016-04-04T06:30:41.204Z,40.39
2016-04-04T06:31:41.160Z,41.06
2016-04-04T06:32:44.131Z,40.39
2016-04-04T06:33:41.103Z,40.29
2016-04-04T06:34:44.402Z,40.29
2016-04-04T06:35:40.967Z,40.29
2016-04-04T06:36:40.940Z,40.29
2016-04-04T06:37:40.879Z,40.39
2016-04-04T06:38:40.835Z,40.29
2016-04-04T06:39:40.790Z,39.91
2016-04-04T06:40:43.731Z,40.48
2016-04-04T06:41:40.687Z,40.39
2016-04-04T06:42:43.642Z,40.39
2016-04-04T06:43:40.614Z,40.29
2016-04-04T06:44:40.554Z,40.29
2016-04-04T06:45:40.510Z,40.39
2016-04-04T06:46:40.809Z,40.39
2016-04-04T06:47:40.422Z,40.39
2016-04-04T06:48:40.378Z,40
2016-04-04T06:49:40.583Z,40.48
2016-04-04T06:50:40.273Z,40.29
2016-04-04T06:51:40.244Z,41.06
2016-04-04T06:52:40.216Z,40.2
2016-04-04T06:53:40.172Z,40.39
2016-04-04T06:54:40.097Z,40.39
2016-04-04T06:55:40.036Z,40.29
2016-04-04T06:56:39.993Z,40.39
2016-04-04T06:57:42.996Z,40.1
2016-04-04T06:58:39.888Z,40.2
2016-04-04T06:59:42.876Z,40.39
2016-04-04T07:00:39.837Z,40.29
2016-04-04T07:01:42.777Z,40.2
2016-04-04T07:02:39.717Z,40.29
2016-04-04T07:03:39.673Z,40.29
2016-04-04T07:04:39.690Z,40.39
2016-04-04T07:05:39.585Z,40.48
2016-04-04T07:06:39.540Z,40.48
2016-04-04T07:07:39.481Z,40.29
2016-04-04T07:08:42.451Z,40.2
2016-04-04T07:09:39.392Z,40.39
2016-04-04T07:10:39.347Z,40.58
2016-04-04T07:11:39.303Z,40.39
2016-04-04T07:12:39.259Z,40.58
2016-04-04T07:13:40.261Z,40.29
2016-04-04T07:14:42.453Z,40.39
2016-04-04T07:15:39.127Z,40.39
2016-04-04T07:16:39.082Z,40.29
2016-04-04T07:17:39.022Z,40.39
2016-04-04T07:18:44.978Z,40.29
2016-04-04T07:19:38.934Z,40.29
2016-04-04T07:20:38.890Z,40.48
2016-04-04T07:21:41.847Z,40.2
2016-04-04T07:22:38.786Z,40.39
2016-04-04T07:23:38.789Z,40.39
2016-04-04T07:24:38.119Z,40.48
2016-04-04T07:25:38.044Z,40.29
2016-04-04T07:26:38.766Z,39.91
2016-04-04T07:27:38.566Z,40.29
2016-04-04T07:28:38.552Z,40.39
2016-04-04T07:29:38.492Z,40.29
2016-04-04T07:30:38.480Z,40.39
2016-04-04T07:31:38.421Z,40.2
2016-04-04T07:32:38.376Z,40.29
2016-04-04T07:33:41.268Z,40.39
2016-04-04T07:34:38.257Z,40.39
2016-04-04T07:35:38.195Z,40.29
2016-04-04T07:36:38.137Z,40
2016-04-04T07:37:38.107Z,40.2
2016-04-04T07:38:38.048Z,40.39
2016-04-04T07:39:38.004Z,40.39
2016-04-04T07:40:37.945Z,39.91
2016-04-04T07:41:38.212Z,40.39
2016-04-04T07:42:37.855Z,39.81
2016-04-04T07:43:37.812Z,40.29
2016-04-04T07:44:37.768Z,40.2
2016-04-04T07:45:40.754Z,40.29
2016-04-04T07:46:40.710Z,40.1
2016-04-04T07:47:37.634Z,39.91
2016-04-04T07:48:37.559Z,40.39
2016-04-04T07:49:37.562Z,40.2
2016-04-04T07:50:37.689Z,40.29
2016-04-04T07:51:37.442Z,40.39
2016-04-04T07:52:37.397Z,40.29
2016-04-04T07:53:37.339Z,40.29
2016-04-04T07:54:37.310Z,40.29
2016-04-04T07:55:37.249Z,40.29
2016-04-04T07:56:37.238Z,40.39
2016-04-04T07:57:37.177Z,40.39
2016-04-04T07:58:37.133Z,40.39
2016-04-04T07:59:37.573Z,40.58
2016-04-04T08:00:37.029Z,39.91
2016-04-04T08:01:36.984Z,39.91
2016-04-04T08:02:36.941Z,40.29
2016-04-04T08:03:36.881Z,40.39
2016-04-04T08:04:36.837Z,40.39
2016-04-04T08:05:36.793Z,40.29
2016-04-04T08:06:36.780Z,39.91
2016-04-04T08:07:36.704Z,40.48
2016-04-04T08:08:36.644Z,40.39
2016-04-04T08:09:36.647Z,40.29
2016-04-04T08:10:36.556Z,39.91
2016-04-04T08:11:36.528Z,40.39
2016-04-04T08:12:36.483Z,39.91
2016-04-04T08:13:36.454Z,39.81
2016-04-04T08:14:36.394Z,40.1
2016-04-04T08:15:36.350Z,39.81
2016-04-04T08:16:36.275Z,40
2016-04-04T08:17:36.262Z,40.29
2016-04-04T08:18:36.218Z,40.39
2016-04-04T08:19:36.252Z,40.39
2016-04-04T08:20:36.114Z,40.39
2016-04-04T08:21:36.086Z,40.2
2016-04-04T08:22:36.010Z,40.48
2016-04-04T08:23:35.966Z,40.2
2016-04-04T08:24:36.156Z,39.81
2016-04-04T08:25:35.909Z,40.1
2016-04-04T08:26:35.833Z,40.2
2016-04-04T08:27:35.774Z,40.39
2016-04-04T08:28:38.760Z,40.39
2016-04-04T08:29:35.670Z,40.29
2016-04-04T08:30:35.625Z,40
2016-04-04T08:31:35.597Z,39.81
2016-04-04T08:32:35.537Z,40
2016-04-04T08:33:35.467Z,40.2
2016-04-04T08:34:35.443Z,40
2016-04-04T08:35:35.355Z,40
2016-04-04T08:36:35.315Z,40
2016-04-04T08:37:35.243Z,40.1
2016-04-04T08:38:35.241Z,40.39
2016-04-04T08:39:35.239Z,39.91
2016-04-04T08:40:35.190Z,40.1
2016-04-04T08:41:35.033Z,40.1
2016-04-04T08:42:35.031Z,40
2016-04-04T08:43:34.938Z,40
2016-04-04T08:44:34.954Z,40.29
2016-04-04T08:45:34.847Z,40
2016-04-04T08:46:34.786Z,40
2016-04-04T08:47:34.739Z,40
2016-04-04T08:48:34.695Z,40
2016-04-04T08:49:34.649Z,40.1
2016-04-04T08:50:34.635Z,40.29
2016-04-04T08:51:34.575Z,40.1
2016-04-04T08:52:34.530Z,40
2016-04-04T08:53:40.516Z,40
2016-04-04T08:54:34.488Z,40.29
2016-04-04T08:55:34.412Z,40.2
2016-04-04T08:56:37.336Z,40.29
2016-04-04T08:57:34.338Z,40.2
2016-04-04T08:58:34.528Z,39.91
2016-04-04T08:59:34.172Z,40
2016-04-04T09:00:34.222Z,39.81
2016-04-04T09:01:34.114Z,40.1
2016-04-04T09:02:34.366Z,40
2016-04-04T09:03:34.011Z,40.2
2016-04-04T09:04:34.419Z,40.2
2016-04-04T09:05:33.907Z,39.91
2016-04-04T09:06:33.862Z,40.39
2016-04-04T09:07:36.834Z,40.1
2016-04-04T09:08:33.758Z,40.29
2016-04-04T09:09:33.730Z,40.48
2016-04-04T09:10:33.795Z,40.39
2016-04-04T09:11:33.626Z,40.39
2016-04-04T09:12:33.597Z,40.2
2016-04-04T09:13:33.537Z,40.29
2016-04-04T09:14:36.806Z,40.2
2016-04-04T09:15:33.449Z,40.48
2016-04-04T09:16:36.420Z,40.58
2016-04-04T09:17:33.361Z,40.39
2016-04-04T09:18:36.301Z,40.39
2016-04-04T09:19:33.287Z,40.29
2016-04-04T09:20:33.197Z,40.39
2016-04-04T09:21:33.325Z,40.48
2016-04-04T09:22:33.108Z,40.29
2016-04-04T09:23:33.080Z,40.29
2016-04-04T09:24:33.036Z,40.39
2016-04-04T09:25:32.976Z,40.39
2016-04-04T09:26:33.119Z,40.29
2016-04-04T09:27:35.903Z,40
2016-04-04T09:28:32.859Z,40
2016-04-04T09:29:32.814Z,40.39
2016-04-04T09:30:32.739Z,40.29
2016-04-04T09:31:32.695Z,40
2016-04-04T09:32:32.651Z,40.39
2016-04-04T09:33:32.622Z,40.48
2016-04-04T09:34:32.563Z,40.29
2016-04-04T09:35:32.674Z,40.39
2016-04-04T09:36:32.474Z,40.29
2016-04-04T09:37:32.415Z,40.39
2016-04-04T09:38:32.386Z,40.29
2016-04-04T09:39:32.357Z,40.58
2016-04-04T09:40:32.298Z,40.39
2016-04-04T09:41:32.253Z,40.58
2016-04-04T09:42:32.240Z,40.77
2016-04-04T09:43:32.868Z,40.48
2016-04-04T09:44:32.105Z,40.77
2016-04-04T09:45:32.499Z,41.06
2016-04-04T09:46:32.001Z,40.96
2016-04-04T09:47:35.034Z,41.06
2016-04-04T09:48:31.913Z,40.48
2016-04-04T09:49:31.963Z,40.58
2016-04-04T09:50:31.950Z,40.29
2016-04-04T09:51:34.795Z,40.77
2016-04-04T09:52:31.736Z,40.77
2016-04-04T09:53:31.722Z,40.87
2016-04-04T09:54:31.647Z,41.06
2016-04-04T09:55:31.792Z,40.96
2016-04-04T09:56:31.872Z,40.77
2016-04-04T09:57:31.531Z,41.06
2016-04-04T09:58:32.267Z,40.58
2016-04-04T09:59:31.411Z,40.39
2016-04-04T10:00:34.445Z,40.39
2016-04-04T10:01:31.339Z,40.39
2016-04-04T10:02:31.295Z,41.06
2016-04-04T10:03:31.297Z,40.58
2016-04-04T10:04:31.174Z,40.39
2016-04-04T10:05:31.146Z,40.39
2016-04-04T10:06:31.086Z,40.58
2016-04-04T10:07:31.027Z,40.87
2016-04-04T10:08:31.123Z,40.77
2016-04-04T10:09:30.943Z,40.48
2016-04-04T10:10:30.929Z,40.1
2016-04-04T10:11:33.980Z,40.2
2016-04-04T10:12:33.795Z,40.29
2016-04-04T10:13:30.766Z,40.29
2016-04-04T10:14:30.753Z,40.39
2016-04-04T10:15:30.662Z,40.2
2016-04-04T10:16:31.493Z,40.39
2016-04-04T10:17:30.621Z,40.48
2016-04-04T10:18:33.811Z,40.39
2016-04-04T10:19:30.720Z,40
2016-04-04T10:20:30.409Z,40.39
2016-04-04T10:21:30.428Z,40.39
2016-04-04T10:22:30.400Z,40.2
2016-04-04T10:23:33.028Z,40.2
2016-04-04T10:24:30.280Z,40.29
2016-04-04T10:25:31.048Z,40
2016-04-04T10:26:30.239Z,40.2
2016-04-04T10:27:30.195Z,39.81
2016-04-04T10:28:30.056Z,40.29
2016-04-04T10:29:30.122Z,40
2016-04-04T10:30:29.968Z,40
2016-04-04T10:31:30.002Z,40.1
2016-04-04T10:32:29.879Z,40.29
2016-04-04T10:33:30.727Z,39.91
2016-04-04T10:34:29.777Z,40.2
2016-04-04T10:35:29.841Z,40.29
2016-04-04T10:36:29.671Z,39.81
2016-04-04T10:37:29.612Z,39.81
2016-04-04T10:38:29.567Z,39.72
2016-04-04T10:39:29.398Z,40
2016-04-04T10:40:29.480Z,40
2016-04-04T10:41:29.951Z,40
2016-04-04T10:42:29.579Z,40
2016-04-04T10:43:29.456Z,40
2016-04-04T10:44:29.287Z,40
2016-04-04T10:45:29.259Z,40.2
2016-04-04T10:46:29.230Z,39.91
2016-04-04T10:47:29.170Z,40.39
2016-04-04T10:48:29.204Z,40.39
2016-04-04T10:49:29.081Z,40.39
2016-04-04T10:50:29.084Z,40.67
2016-04-04T10:51:29.290Z,41.06
2016-04-04T10:52:29.137Z,40.96
2016-04-04T10:53:28.858Z,40.77
2016-04-04T10:54:28.814Z,40.48
2016-04-04T10:55:28.832Z,40.2
2016-04-04T10:56:28.788Z,40.29
2016-04-04T10:57:28.759Z,40.39
2016-04-04T10:58:28.669Z,40.1
2016-04-04T10:59:28.593Z,40.29
2016-04-04T11:00:28.549Z,40.2
2016-04-04T11:01:28.536Z,40.29
2016-04-04T11:02:28.445Z,40.2
2016-04-04T11:03:28.400Z,40.39
2016-04-04T11:04:28.357Z,40.58
2016-04-04T11:05:28.296Z,40.48
2016-04-04T11:06:28.253Z,40.39
2016-04-04T11:07:28.052Z,40.29
2016-04-04T11:08:28.159Z,40.58
2016-04-04T11:09:28.098Z,40.1
2016-04-04T11:10:28.085Z,41.16
2016-04-04T11:11:31.072Z,40.96
2016-04-04T11:12:27.981Z,40.77
2016-04-04T11:13:27.968Z,40.96
2016-04-04T11:14:27.909Z,40.39
2016-04-04T11:15:27.911Z,40.77
2016-04-04T11:16:27.820Z,41.06
2016-04-04T11:17:27.839Z,41.06
2016-04-04T11:18:27.717Z,40.87
2016-04-04T11:19:28.297Z,40.77
2016-04-04T11:20:27.628Z,40.39
2016-04-04T11:21:27.584Z,40.2
2016-04-04T11:22:27.806Z,40.29
2016-04-04T11:23:27.495Z,40.48
2016-04-04T11:24:27.545Z,40.2
2016-04-04T11:25:27.439Z,40.39
2016-04-04T11:26:27.316Z,40.29
2016-04-04T11:27:27.303Z,40.29
2016-04-04T11:28:27.431Z,40.1
2016-04-04T11:29:27.277Z,40.48
2016-04-04T11:30:27.171Z,40.39
2016-04-04T11:31:27.141Z,41.06
2016-04-04T11:32:27.129Z,40.58
2016-04-04T11:33:27.006Z,40.58
2016-04-04T11:34:27.009Z,40.77
2016-04-04T11:35:26.981Z,41.06
2016-04-04T11:36:26.858Z,40.96
2016-04-04T11:37:26.861Z,41.06
2016-04-04T11:38:26.963Z,41.06
2016-04-04T11:39:26.731Z,41.44
2016-04-04T11:40:26.781Z,40.77
2016-04-04T11:41:29.736Z,40.77
2016-04-04T11:42:26.583Z,40.29
2016-04-04T11:43:26.601Z,40.58
2016-04-04T11:44:26.588Z,40.29
2016-04-04T11:45:26.450Z,40
2016-04-04T11:46:26.421Z,40.39
2016-04-04T11:47:26.346Z,40.29
2016-04-04T11:48:26.302Z,40.1
2016-04-04T11:49:26.257Z,40
2016-04-04T11:50:26.197Z,39.91
2016-04-04T11:51:26.138Z,39.81
2016-04-04T11:52:26.125Z,40
2016-04-04T11:53:26.049Z,40
2016-04-04T11:54:26.006Z,39.62
2016-04-04T11:55:25.961Z,40.1
2016-04-04T11:56:25.933Z,40.1
2016-04-04T11:57:25.858Z,40
2016-04-04T11:58:26.469Z,39.62
2016-04-04T11:59:25.800Z,39.91
2016-04-04T12:00:25.584Z,39.81
2016-04-04T12:01:25.774Z,40
2016-04-04T12:02:25.637Z,40.2
2016-04-04T12:03:28.607Z,40.1
2016-04-04T12:04:25.563Z,40
2016-04-04T12:05:25.519Z,40.1
2016-04-04T12:06:25.522Z,40
2016-04-04T12:07:25.400Z,39.81
2016-04-04T12:08:25.902Z,40.1
2016-04-04T12:09:25.327Z,40.1
2016-04-04T12:10:25.298Z,40
2016-04-04T12:11:25.270Z,40
2016-04-04T12:12:25.289Z,40.2
2016-04-04T12:13:25.151Z,40.2
2016-04-04T12:14:25.137Z,40.2
2016-04-04T12:15:25.125Z,40.29
2016-04-04T12:16:25.127Z,40.1
2016-04-04T12:17:25.020Z,40.29
2016-04-04T12:18:25.117Z,40.1
2016-04-04T12:19:25.525Z,40.2
2016-04-04T12:20:24.811Z,40.2
2016-04-04T12:21:24.750Z,40.1
2016-04-04T12:22:25.144Z,40.1
2016-04-04T12:23:24.678Z,40.29
2016-04-04T12:24:24.649Z,40.29
2016-04-04T12:25:24.636Z,40.29
2016-04-04T12:26:24.561Z,40.2
2016-04-04T12:27:24.516Z,40.1
2016-04-04T12:28:24.519Z,40.29
2016-04-04T12:29:24.427Z,40.29
2016-04-04T12:30:24.524Z,40.1
2016-04-04T12:31:25.152Z,39.72
2016-04-04T12:32:24.263Z,39.53
2016-04-04T12:33:24.251Z,40.2
2016-04-04T12:34:24.143Z,40.1
2016-04-04T12:35:24.131Z,40.1
2016-04-04T12:36:24.071Z,40.2
2016-04-04T12:37:24.043Z,40.2
2016-04-04T12:38:23.983Z,40.2
2016-04-04T12:39:24.237Z,39.81
2016-04-04T12:40:24.160Z,40.1
2016-04-04T12:41:24.320Z,40.2
2016-04-04T12:42:23.776Z,40.2
2016-04-04T12:43:23.747Z,40.1
2016-04-04T12:44:23.734Z,40.1
2016-04-04T12:45:23.642Z,39.62
2016-04-04T12:46:23.864Z,39.62
2016-04-04T12:47:23.633Z,39.81
2016-04-04T12:48:24.494Z,39.72
2016-04-04T12:49:24.388Z,39.72
2016-04-04T12:50:23.422Z,40.1
2016-04-04T12:51:23.705Z,40
2016-04-04T12:52:23.333Z,39.81
2016-04-04T12:53:23.335Z,40.2
2016-04-04T12:54:23.229Z,40.29
2016-04-04T12:55:23.263Z,40.1
2016-04-04T12:56:26.156Z,40.1
2016-04-04T12:57:23.191Z,39.43
2016-04-04T12:58:23.115Z,39.72
2016-04-04T12:59:23.055Z,39.81
2016-04-04T13:00:23.136Z,39.72
2016-04-04T13:01:22.905Z,39.53
2016-04-04T13:02:22.844Z,40.1
2016-04-04T13:03:23.238Z,39.72
2016-04-04T13:04:22.865Z,39.72
2016-04-04T13:05:22.712Z,40
2016-04-04T13:06:22.699Z,39.62
2016-04-04T13:07:22.717Z,39.62
2016-04-04T13:08:22.611Z,39.62
2016-04-04T13:09:22.629Z,39.91
2016-04-04T13:10:22.476Z,39.72